createdAt,value
2023-04-29T00:01:17.206Z,277.20
2023-04-29T00:03:43.708Z,277.57
2023-04-29T00:06:10.288Z,301.40
2023-04-29T00:08:36.716Z,293.87
2023-04-29T00:11:03.202Z,280.17
2023-04-29T00:13:29.556Z,274.60
2023-04-29T00:15:55.894Z,279.40
2023-04-29T00:18:22.239Z,281.17
2023-04-29T00:20:48.583Z,275.40
2023-04-29T00:23:14.914Z,288.53
2023-04-29T00:25:41.267Z,277.60
2023-04-29T00:28:07.598Z,281.60
2023-04-29T00:30:33.951Z,278.70
2023-04-29T00:33:00.360Z,277.83
2023-04-29T00:35:26.727Z,278.90
2023-04-29T00:37:53.058Z,276.60
2023-04-29T00:40:19.425Z,277.43
2023-04-29T00:42:45.773Z,276.03
2023-04-29T00:45:12.108Z,276.73
2023-04-29T00:47:38.742Z,278.57
2023-04-29T00:50:06.093Z,280.33
2023-04-29T00:52:32.449Z,280.17
2023-04-29T00:54:58.792Z,278.73
2023-04-29T00:57:25.367Z,277.07
2023-04-29T00:59:51.912Z,279.40
2023-04-29T01:02:18.387Z,278.80
2023-04-29T01:04:44.782Z,275.70
2023-04-29T01:07:21.373Z,280.83
2023-04-29T01:10:03.574Z,279.47
2023-04-29T01:12:35.882Z,278.60
2023-04-29T01:15:05.459Z,273.47
2023-04-29T01:17:36.572Z,281.00
2023-04-29T01:20:03.024Z,275.13
2023-04-29T01:22:29.390Z,276.93
2023-04-29T01:24:55.737Z,273.23
2023-04-29T01:27:30.275Z,273.80
2023-04-29T01:30:02.814Z,277.43
2023-04-29T01:32:34.843Z,277.60
2023-04-29T01:35:36.535Z,280.47
2023-04-29T01:38:23.478Z,284.07
2023-04-29T01:41:22.827Z,278.10
2023-04-29T01:43:50.834Z,322.57
2023-04-29T01:46:17.542Z,385.87
2023-04-29T01:48:44.112Z,271.47
2023-04-29T01:51:10.469Z,290.77
2023-04-29T01:53:36.809Z,288.40
2023-04-29T01:56:03.151Z,318.67
2023-04-29T01:58:29.511Z,273.63
2023-04-29T02:00:55.926Z,276.00
2023-04-29T02:03:22.415Z,443.73
2023-04-29T02:05:48.786Z,326.77
2023-04-29T02:08:15.125Z,295.87
2023-04-29T02:10:41.489Z,289.57
2023-04-29T02:13:07.845Z,268.73
2023-04-29T02:15:34.203Z,274.33
2023-04-29T02:18:00.581Z,360.77
2023-04-29T02:20:26.974Z,321.40
2023-04-29T02:22:53.367Z,384.57
2023-04-29T02:25:19.710Z,262.93
2023-04-29T02:27:46.087Z,263.90
2023-04-29T02:30:12.490Z,262.07
2023-04-29T02:32:38.880Z,263.93
2023-04-29T02:35:05.806Z,264.63
2023-04-29T02:37:32.145Z,271.40
2023-04-29T02:39:58.482Z,267.10
2023-04-29T02:42:24.833Z,353.67
2023-04-29T02:44:51.163Z,277.10
2023-04-29T02:47:17.515Z,293.20
2023-04-29T02:49:43.850Z,359.27
2023-04-29T02:52:10.191Z,298.23
2023-04-29T02:54:36.551Z,290.00
2023-04-29T02:57:02.905Z,291.87
2023-04-29T02:59:29.240Z,281.20
2023-04-29T03:01:55.594Z,319.20
2023-04-29T03:04:22.090Z,273.20
2023-04-29T03:06:48.724Z,292.00
2023-04-29T03:09:15.066Z,285.90
2023-04-29T03:11:41.416Z,280.63
2023-04-29T03:14:07.765Z,287.90
2023-04-29T03:16:34.179Z,284.50
2023-04-29T03:19:00.603Z,286.73
2023-04-29T03:21:26.956Z,274.77
2023-04-29T03:23:53.295Z,311.87
2023-04-29T03:26:19.695Z,289.10
2023-04-29T03:28:46.084Z,301.70
2023-04-29T03:31:12.490Z,276.60
2023-04-29T03:33:38.840Z,265.27
2023-04-29T03:36:05.420Z,267.83
2023-04-29T03:38:31.745Z,265.67
2023-04-29T03:40:58.123Z,268.20
2023-04-29T03:43:24.478Z,267.63
2023-04-29T03:45:50.894Z,270.57
2023-04-29T03:48:17.245Z,270.70
2023-04-29T03:50:43.630Z,270.03
2023-04-29T03:53:09.970Z,266.37
2023-04-29T03:55:36.310Z,270.43
2023-04-29T03:58:02.664Z,286.77
2023-04-29T04:00:30.166Z,297.53
2023-04-29T04:02:57.313Z,272.33
2023-04-29T04:05:23.734Z,357.90
2023-04-29T04:07:50.081Z,270.77
2023-04-29T04:10:16.445Z,300.47
2023-04-29T04:12:44.264Z,285.13
2023-04-29T04:15:10.839Z,334.43
2023-04-29T04:17:37.217Z,307.80
2023-04-29T04:20:03.731Z,293.83
2023-04-29T04:22:30.073Z,276.67
2023-04-29T04:24:56.402Z,277.37
2023-04-29T04:27:22.815Z,293.10
2023-04-29T04:29:53.684Z,277.43
2023-04-29T04:32:23.681Z,284.70
2023-04-29T04:34:50.560Z,271.97
2023-04-29T04:37:16.894Z,285.90
2023-04-29T04:39:43.342Z,269.40
2023-04-29T04:42:09.684Z,277.93
2023-04-29T04:44:36.020Z,274.63
2023-04-29T04:47:02.381Z,287.37
2023-04-29T04:49:28.720Z,345.20
2023-04-29T04:51:55.077Z,305.40
2023-04-29T04:54:21.419Z,270.97
2023-04-29T04:56:47.767Z,453.73
2023-04-29T04:59:14.199Z,459.23
2023-04-29T05:01:40.637Z,365.47
2023-04-29T05:04:07.188Z,392.80
2023-04-29T05:06:33.596Z,547.90
2023-04-29T05:08:59.951Z,552.33
2023-04-29T05:11:26.311Z,549.90
2023-04-29T05:13:52.663Z,571.83
2023-04-29T05:16:19.112Z,487.30
2023-04-29T05:18:45.481Z,514.37
2023-04-29T05:21:12.480Z,478.87
2023-04-29T05:23:38.833Z,370.10
2023-04-29T05:26:05.211Z,439.27
2023-04-29T05:28:31.550Z,281.37
2023-04-29T05:30:57.954Z,356.93
2023-04-29T05:33:24.328Z,299.50
2023-04-29T05:35:50.696Z,363.90
2023-04-29T05:38:17.051Z,406.30
2023-04-29T05:40:43.411Z,395.60
2023-04-29T05:43:09.761Z,305.33
2023-04-29T05:45:36.125Z,284.57
2023-04-29T05:48:02.521Z,417.73
2023-04-29T05:50:28.928Z,341.63
2023-04-29T05:52:55.275Z,289.90
2023-04-29T05:55:21.644Z,358.90
2023-04-29T05:57:47.998Z,309.87
2023-04-29T06:00:14.406Z,287.17
2023-04-29T06:02:50.627Z,283.80
2023-04-29T06:05:24.534Z,340.77
2023-04-29T06:07:51.103Z,289.97
2023-04-29T06:10:17.573Z,282.17
2023-04-29T06:12:43.939Z,295.17
2023-04-29T06:15:10.528Z,306.37
2023-04-29T06:17:36.931Z,334.00
2023-04-29T06:20:03.496Z,290.00
2023-04-29T06:22:29.867Z,289.47
2023-04-29T06:24:56.224Z,297.10
2023-04-29T06:27:22.596Z,271.60
2023-04-29T06:29:49.098Z,281.10
2023-04-29T06:32:15.449Z,272.70
2023-04-29T06:34:41.797Z,311.37
2023-04-29T06:37:08.154Z,346.43
2023-04-29T06:39:34.493Z,284.87
2023-04-29T06:42:00.849Z,315.30
2023-04-29T06:44:27.187Z,294.73
2023-04-29T06:46:53.563Z,286.43
2023-04-29T06:49:20.194Z,301.17
2023-04-29T06:51:46.546Z,297.27
2023-04-29T06:54:12.889Z,292.60
2023-04-29T06:56:39.243Z,297.77
2023-04-29T06:59:05.618Z,298.90
2023-04-29T07:01:32.033Z,303.07
2023-04-29T07:03:58.681Z,294.60
2023-04-29T07:06:25.164Z,300.57
2023-04-29T07:08:51.536Z,305.53
2023-04-29T07:11:17.906Z,289.40
2023-04-29T07:13:44.252Z,291.03
2023-04-29T07:16:17.090Z,305.40
2023-04-29T07:18:43.741Z,297.87
2023-04-29T07:21:10.099Z,292.17
2023-04-29T07:23:36.444Z,284.87
2023-04-29T07:26:15.815Z,282.00
2023-04-29T07:28:42.412Z,283.30
2023-04-29T07:31:08.880Z,277.00
2023-04-29T07:33:35.419Z,284.37
2023-04-29T07:36:02.273Z,299.40
2023-04-29T07:38:28.687Z,285.17
2023-04-29T07:40:55.095Z,311.90
2023-04-29T07:43:21.482Z,292.40
2023-04-29T07:45:48.313Z,320.60
2023-04-29T07:48:14.669Z,294.50
2023-04-29T07:50:41.020Z,288.13
2023-04-29T07:53:07.388Z,297.43
2023-04-29T07:55:33.784Z,289.27
2023-04-29T07:58:00.633Z,287.37
2023-04-29T08:00:27.120Z,289.97
2023-04-29T08:02:54.159Z,311.53
2023-04-29T08:05:20.867Z,288.43
2023-04-29T08:07:48.038Z,299.90
2023-04-29T08:10:14.792Z,387.87
2023-04-29T08:12:41.176Z,330.53
2023-04-29T08:15:09.670Z,319.70
2023-04-29T08:17:36.369Z,301.80
2023-04-29T08:20:02.876Z,307.40
2023-04-29T08:22:29.290Z,305.00
2023-04-29T08:24:55.627Z,294.90
2023-04-29T08:27:21.980Z,333.40
2023-04-29T08:29:48.361Z,307.00
2023-04-29T08:32:14.728Z,313.63
2023-04-29T08:34:41.076Z,345.67
2023-04-29T08:37:07.432Z,359.40
2023-04-29T08:39:33.783Z,326.80
2023-04-29T08:42:00.246Z,356.73
2023-04-29T08:44:26.681Z,306.13
2023-04-29T08:46:53.064Z,324.50
2023-04-29T08:49:19.401Z,300.67
2023-04-29T08:51:48.814Z,338.67
2023-04-29T08:54:15.162Z,316.07
2023-04-29T08:56:43.700Z,297.50
2023-04-29T08:59:10.057Z,295.53
2023-04-29T09:01:36.629Z,296.83
2023-04-29T09:04:44.958Z,310.50
2023-04-29T09:07:11.352Z,284.60
2023-04-29T09:09:37.694Z,304.37
2023-04-29T09:12:04.051Z,315.17
2023-04-29T09:14:30.429Z,312.17
2023-04-29T09:16:56.816Z,299.33
2023-04-29T09:19:32.916Z,300.90
2023-04-29T09:21:59.592Z,300.00
2023-04-29T09:24:26.647Z,326.27
2023-04-29T09:26:53.102Z,292.50
2023-04-29T09:29:19.451Z,321.43
2023-04-29T09:31:46.001Z,321.17
2023-04-29T09:34:12.513Z,309.87
2023-04-29T09:36:42.668Z,307.63
2023-04-29T09:39:09.587Z,296.27
2023-04-29T09:41:35.972Z,287.03
2023-04-29T09:44:06.005Z,283.63
2023-04-29T09:46:35.653Z,284.33
2023-04-29T09:49:03.168Z,286.00
2023-04-29T09:51:29.532Z,286.60
2023-04-29T09:53:55.882Z,284.80
2023-04-29T09:56:22.232Z,285.13
2023-04-29T09:58:48.574Z,287.07
2023-04-29T10:01:14.952Z,292.33
2023-04-29T10:03:41.420Z,293.10
2023-04-29T10:06:07.962Z,289.53
2023-04-29T10:08:34.438Z,291.43
2023-04-29T10:11:01.961Z,296.57
2023-04-29T10:13:28.525Z,366.10
2023-04-29T10:16:11.033Z,313.50
2023-04-29T10:18:37.667Z,306.67
2023-04-29T10:21:07.166Z,301.03
2023-04-29T10:23:33.662Z,299.97
2023-04-29T10:26:00.713Z,303.30
2023-04-29T10:28:27.052Z,294.70
2023-04-29T10:30:54.093Z,291.93
2023-04-29T10:33:20.644Z,287.93
2023-04-29T10:35:47.029Z,292.97
2023-04-29T10:38:18.497Z,298.27
2023-04-29T10:40:45.500Z,299.73
2023-04-29T10:43:11.854Z,317.47
2023-04-29T10:45:38.515Z,307.80
2023-04-29T10:48:04.793Z,318.70
2023-04-29T10:50:49.208Z,292.87
2023-04-29T10:53:16.863Z,285.93
2023-04-29T10:55:43.219Z,295.73
2023-04-29T10:58:40.432Z,292.07
2023-04-29T11:01:07.011Z,285.60
2023-04-29T11:03:52.002Z,288.50
2023-04-29T11:06:18.620Z,291.70
2023-04-29T11:08:44.967Z,289.67
2023-04-29T11:11:12.860Z,288.93
2023-04-29T11:13:39.806Z,293.93
2023-04-29T11:16:10.195Z,298.67
2023-04-29T11:18:37.701Z,292.43
2023-04-29T11:21:06.978Z,308.07
2023-04-29T11:23:39.539Z,313.23
2023-04-29T11:26:05.900Z,320.03
2023-04-29T11:28:32.633Z,309.53
2023-04-29T11:30:59.078Z,321.67
2023-04-29T11:33:26.108Z,320.10
2023-04-29T11:35:52.475Z,300.97
2023-04-29T11:38:21.005Z,306.00
2023-04-29T11:40:50.481Z,302.60
2023-04-29T11:43:17.736Z,330.07
2023-04-29T11:45:47.344Z,306.87
2023-04-29T11:48:24.103Z,339.03
2023-04-29T11:50:51.966Z,381.83
2023-04-29T11:53:21.861Z,414.40
2023-04-29T11:55:48.220Z,428.87
2023-04-29T11:58:14.947Z,317.10
2023-04-29T12:00:41.311Z,315.33
2023-04-29T12:03:14.466Z,292.90
2023-04-29T12:05:46.705Z,291.50
2023-04-29T12:08:13.181Z,290.03
2023-04-29T12:10:39.548Z,299.17
2023-04-29T12:13:06.229Z,300.57
2023-04-29T12:15:33.312Z,301.43
2023-04-29T12:18:00.510Z,289.23
2023-04-29T12:20:26.876Z,292.63
2023-04-29T12:22:53.337Z,328.67
2023-04-29T12:25:19.695Z,328.17
2023-04-29T12:27:46.043Z,335.37
2023-04-29T12:30:12.599Z,330.40
2023-04-29T12:32:39.270Z,305.23
2023-04-29T12:35:05.937Z,301.40
2023-04-29T12:37:33.157Z,317.77
2023-04-29T12:39:59.500Z,341.70
2023-04-29T12:42:32.514Z,298.67
2023-04-29T12:44:58.900Z,319.27
2023-04-29T12:47:25.322Z,331.30
2023-04-29T12:49:51.674Z,306.43
2023-04-29T12:52:18.032Z,389.03
2023-04-29T12:54:44.434Z,389.37
2023-04-29T12:57:11.945Z,385.23
2023-04-29T12:59:38.456Z,366.50
2023-04-29T13:02:06.614Z,312.83
2023-04-29T13:04:34.042Z,322.57
2023-04-29T13:07:00.566Z,365.83
2023-04-29T13:09:27.041Z,329.80
2023-04-29T13:11:53.433Z,366.43
2023-04-29T13:14:20.037Z,330.90
2023-04-29T13:16:47.007Z,353.60
2023-04-29T13:21:44.283Z,350.47
2023-04-29T13:24:10.656Z,288.10
2023-04-29T13:26:37.009Z,302.67
2023-04-29T13:29:03.366Z,306.83
2023-04-29T13:31:30.247Z,312.60
2023-04-29T13:33:57.323Z,293.87
2023-04-29T13:36:23.774Z,318.00
2023-04-29T13:38:55.068Z,321.17
2023-04-29T13:41:22.079Z,348.60
2023-04-29T13:43:50.777Z,312.57
2023-04-29T13:46:20.695Z,301.40
2023-04-29T14:01:44.205Z,297.03
2023-04-29T14:04:03.492Z,313.97
2023-04-29T14:06:29.935Z,321.17
2023-04-29T14:08:56.294Z,322.23
2023-04-29T14:11:22.708Z,295.23
2023-04-29T14:13:49.080Z,287.53
2023-04-29T14:16:15.697Z,306.43
2023-04-29T14:18:42.122Z,311.23
2023-04-29T14:21:08.518Z,294.73
2023-04-29T14:23:34.931Z,312.80
2023-04-29T14:28:30.549Z,387.40
2023-04-29T14:30:56.940Z,351.93
2023-04-29T14:33:23.319Z,358.80
2023-04-29T14:35:49.665Z,434.30
2023-04-29T14:38:16.004Z,569.83
2023-04-29T14:40:42.366Z,388.37
2023-04-29T14:43:08.714Z,599.03
2023-04-29T14:45:35.202Z,475.13
2023-04-29T14:48:01.565Z,454.20
2023-04-29T14:50:27.976Z,391.53
2023-04-29T14:52:54.315Z,310.33
2023-04-29T14:55:20.660Z,305.83
2023-04-29T14:57:47.003Z,371.87
2023-04-29T15:00:14.126Z,377.07
2023-04-29T15:02:40.559Z,438.10
2023-04-29T15:05:07.031Z,365.93
2023-04-29T15:07:33.380Z,344.07
2023-04-29T15:09:59.740Z,353.63
2023-04-29T15:12:26.074Z,307.93
2023-04-29T15:14:52.579Z,341.80
2023-04-29T15:17:19.112Z,299.83
2023-04-29T15:19:45.463Z,371.63
2023-04-29T15:22:11.795Z,344.53
2023-04-29T15:24:38.155Z,318.33
2023-04-29T15:27:04.493Z,308.57
2023-04-29T15:29:30.861Z,332.97
2023-04-29T15:31:57.287Z,335.97
2023-04-29T15:34:23.697Z,336.97
2023-04-29T15:36:50.052Z,313.03
2023-04-29T15:39:16.415Z,351.20
2023-04-29T15:41:42.755Z,362.20
2023-04-29T15:44:09.104Z,360.20
2023-04-29T15:46:35.444Z,406.47
2023-04-29T15:49:01.800Z,330.17
2023-04-29T15:51:28.153Z,304.50
2023-04-29T15:53:54.506Z,345.63
2023-04-29T15:56:20.885Z,373.33
2023-04-29T15:58:47.243Z,363.23
2023-04-29T16:01:13.618Z,336.40
2023-04-29T16:03:46.818Z,371.57
2023-04-29T16:06:13.304Z,315.90
2023-04-29T16:08:41.016Z,313.87
2023-04-29T16:11:07.358Z,303.93
2023-04-29T16:13:36.124Z,365.33
2023-04-29T16:16:02.794Z,356.67
2023-04-29T16:18:29.150Z,309.60
2023-04-29T16:20:55.501Z,305.17
2023-04-29T16:23:21.935Z,412.27
2023-04-29T16:25:48.274Z,339.47
2023-04-29T16:28:14.625Z,297.97
2023-04-29T16:30:40.993Z,279.07
2023-04-29T16:33:07.348Z,278.23
2023-04-29T16:35:33.708Z,278.07
2023-04-29T16:38:00.058Z,274.50
2023-04-29T16:40:26.494Z,283.27
2023-04-29T16:42:52.845Z,300.30
2023-04-29T16:45:20.475Z,357.87
2023-04-29T16:47:48.049Z,334.43
2023-04-29T16:50:14.455Z,310.87
2023-04-29T16:52:40.820Z,320.33
2023-04-29T16:55:07.419Z,384.87
2023-04-29T16:57:33.772Z,335.47
2023-04-29T17:00:00.151Z,278.30
2023-04-29T17:02:26.569Z,282.60
2023-04-29T17:04:53.055Z,288.60
2023-04-29T17:07:19.566Z,318.53
2023-04-29T17:09:46.471Z,325.80
2023-04-29T17:12:13.210Z,326.87
2023-04-29T17:14:40.362Z,318.20
2023-04-29T17:17:06.892Z,308.73
2023-04-29T17:19:33.367Z,315.67
2023-04-29T17:21:59.721Z,301.23
2023-04-29T17:24:26.075Z,355.17
2023-04-29T17:26:52.415Z,336.40
2023-04-29T17:29:18.795Z,357.47
2023-04-29T17:31:45.354Z,373.57
2023-04-29T17:34:12.396Z,322.57
2023-04-29T17:36:38.740Z,338.83
2023-04-29T17:39:05.089Z,298.67
2023-04-29T17:41:32.702Z,343.30
2023-04-29T17:43:59.060Z,402.73
2023-04-29T17:46:25.499Z,407.00
2023-04-29T17:48:51.909Z,393.53
2023-04-29T17:51:18.258Z,333.23
2023-04-29T17:53:44.607Z,335.40
2023-04-29T17:56:10.960Z,304.10
2023-04-29T17:58:37.316Z,299.20
2023-04-29T18:01:04.703Z,314.80
2023-04-29T18:03:31.240Z,295.03
2023-04-29T18:05:57.758Z,290.17
2023-04-29T18:08:24.103Z,319.53
2023-04-29T18:10:50.440Z,352.43
2023-04-29T18:13:16.788Z,286.33
2023-04-29T18:15:43.143Z,321.77
2023-04-29T18:18:09.540Z,290.50
2023-04-29T18:20:35.915Z,306.33
2023-04-29T18:23:02.266Z,301.07
2023-04-29T18:25:28.627Z,306.60
2023-04-29T18:28:03.517Z,304.47
2023-04-29T18:30:39.879Z,289.87
2023-04-29T18:33:06.252Z,334.80
2023-04-29T18:35:32.614Z,294.63
2023-04-29T18:37:59.096Z,303.63
2023-04-29T18:40:25.432Z,297.97
2023-04-29T18:42:51.766Z,372.93
2023-04-29T18:45:18.125Z,383.70
2023-04-29T18:47:44.511Z,388.27
2023-04-29T18:50:10.919Z,369.43
2023-04-29T18:52:37.276Z,427.83
2023-04-29T18:55:03.695Z,357.70
2023-04-29T18:57:30.033Z,300.53
2023-04-29T18:59:56.520Z,315.47
2023-04-29T19:02:22.952Z,288.20
2023-04-29T19:04:49.390Z,309.43
2023-04-29T19:07:15.751Z,298.47
2023-04-29T19:09:42.107Z,307.47
2023-04-29T19:12:08.456Z,276.40
2023-04-29T19:14:34.802Z,276.30
2023-04-29T19:17:01.201Z,285.93
2023-04-29T19:19:27.570Z,286.60
2023-04-29T19:21:53.940Z,283.83
2023-04-29T19:24:20.295Z,298.60
2023-04-29T19:26:46.636Z,328.33
2023-04-29T19:29:13.428Z,287.20
2023-04-29T19:31:39.822Z,312.73
2023-04-29T19:34:06.222Z,312.37
2023-04-29T19:36:32.565Z,309.07
2023-04-29T19:38:58.932Z,295.43
2023-04-29T19:41:25.288Z,327.10
2023-04-29T19:43:51.634Z,309.63
2023-04-29T19:46:18.042Z,344.10
2023-04-29T19:48:44.418Z,308.07
2023-04-29T19:51:10.774Z,297.83
2023-04-29T19:53:37.149Z,312.13
2023-04-29T19:56:03.527Z,309.47
2023-04-29T19:58:29.869Z,324.53
2023-04-29T20:00:56.260Z,330.87
2023-04-29T20:03:22.721Z,328.00
2023-04-29T20:05:49.166Z,324.70
2023-04-29T20:08:15.518Z,324.73
2023-04-29T20:10:41.903Z,335.53
2023-04-29T20:13:08.275Z,343.53
2023-04-29T20:15:34.744Z,279.03
2023-04-29T20:18:01.099Z,282.73
2023-04-29T20:20:27.492Z,289.20
2023-04-29T20:22:53.836Z,272.30
2023-04-29T20:25:20.190Z,285.73
2023-04-29T20:27:46.535Z,290.30
2023-04-29T20:30:12.949Z,282.13
2023-04-29T20:32:39.453Z,336.00
2023-04-29T20:35:06.056Z,304.43
2023-04-29T20:37:32.398Z,273.63
2023-04-29T20:39:58.775Z,298.60
2023-04-29T20:42:25.125Z,279.10
2023-04-29T20:44:51.489Z,291.50
2023-04-29T20:47:17.837Z,321.07
2023-04-29T20:49:44.191Z,300.43
2023-04-29T20:52:10.539Z,315.83
2023-04-29T20:54:36.908Z,319.80
2023-04-29T20:57:03.288Z,320.07
2023-04-29T20:59:29.639Z,289.20
2023-04-29T21:01:56.128Z,295.63
2023-04-29T21:04:22.665Z,281.23
2023-04-29T21:06:49.063Z,274.50
2023-04-29T21:09:15.418Z,275.77
2023-04-29T21:11:41.758Z,266.83
2023-04-29T21:14:08.095Z,285.37
2023-04-29T21:16:34.444Z,292.07
2023-04-29T21:19:00.782Z,291.00
2023-04-29T21:21:27.141Z,289.43
2023-04-29T21:23:53.474Z,290.37
2023-04-29T21:26:19.866Z,295.37
2023-04-29T21:28:46.206Z,295.90
2023-04-29T21:31:12.574Z,286.67
2023-04-29T21:33:38.945Z,293.10
2023-04-29T21:36:05.327Z,278.57
2023-04-29T21:38:31.657Z,291.97
2023-04-29T21:40:58.025Z,279.57
2023-04-29T21:43:24.363Z,293.20
2023-04-29T21:45:50.712Z,295.80
2023-04-29T21:48:17.891Z,289.23
2023-04-29T21:50:44.333Z,329.67
2023-04-29T21:53:13.784Z,349.73
2023-04-29T21:55:41.689Z,315.80
2023-04-29T21:58:08.050Z,290.60
2023-04-29T22:00:34.424Z,301.47
2023-04-29T22:03:01.186Z,351.43
2023-04-29T22:05:27.572Z,347.63
2023-04-29T22:07:53.987Z,332.87
2023-04-29T22:10:20.334Z,361.77
2023-04-29T22:12:46.682Z,365.33
2023-04-29T22:15:26.883Z,402.37
2023-04-29T22:17:54.428Z,335.20
2023-04-29T22:20:26.800Z,280.70
2023-04-29T22:23:06.385Z,324.60
2023-04-29T22:25:34.950Z,328.63
2023-04-29T22:31:01.355Z,304.33
2023-04-29T22:33:35.531Z,387.23
2023-04-29T22:39:04.881Z,339.10
2023-04-29T22:41:38.753Z,333.47
2023-04-29T22:44:10.121Z,282.97
2023-04-29T22:46:36.531Z,338.00
2023-04-29T22:49:20.964Z,358.97
2023-04-29T22:51:55.039Z,354.37
2023-04-29T22:57:34.494Z,397.77
2023-04-29T23:02:43.671Z,333.90
2023-04-29T23:05:10.094Z,338.73
2023-04-29T23:07:36.431Z,292.63
2023-04-29T23:10:02.788Z,311.70
2023-04-29T23:12:29.123Z,319.93
2023-04-29T23:14:55.496Z,371.93
2023-04-29T23:17:21.854Z,359.77
2023-04-29T23:19:48.204Z,345.40
2023-04-29T23:22:14.545Z,305.70
2023-04-29T23:24:40.897Z,308.50
2023-04-29T23:27:07.237Z,287.07
2023-04-29T23:29:33.566Z,286.13
2023-04-29T23:32:00.166Z,338.27
2023-04-29T23:34:26.503Z,334.50
2023-04-29T23:36:52.882Z,284.87
2023-04-29T23:39:19.225Z,373.77
2023-04-29T23:41:45.590Z,345.50
2023-04-29T23:44:11.956Z,272.10
2023-04-29T23:46:38.379Z,312.20
2023-04-29T23:49:04.748Z,297.13
2023-04-29T23:51:31.105Z,280.80
2023-04-29T23:53:57.457Z,327.00
2023-04-29T23:56:23.805Z,307.53
2023-04-29T23:58:50.156Z,303.17
